createdAt,value
2023-02-14T00:09:20.982Z,6.30
2023-02-14T00:29:34.051Z,6.30
2023-02-14T00:32:02.596Z,6.30
2023-02-14T00:34:30.850Z,6.60
2023-02-14T00:39:38.186Z,6.60
2023-02-14T00:42:06.302Z,6.60
2023-02-14T00:51:59.514Z,5.90
2023-02-14T01:14:17.297Z,6.00
2023-02-14T02:08:42.559Z,5.90
2023-02-14T02:16:41.421Z,6.00
2023-02-14T02:22:45.686Z,6.00
2023-02-14T02:25:50.576Z,6.30
2023-02-14T02:28:58.497Z,5.50
2023-02-14T02:32:19.330Z,6.00
2023-02-14T02:35:08.266Z,6.00
2023-02-14T02:37:48.714Z,6.00
2023-02-14T02:40:40.839Z,5.80
2023-02-14T02:43:44.437Z,6.10
2023-02-14T02:46:49.139Z,6.10
2023-02-14T02:50:00.407Z,5.70
2023-02-14T02:56:18.252Z,6.60
2023-02-14T02:59:04.878Z,6.00
2023-02-14T03:01:39.372Z,6.00
2023-02-14T03:04:30.363Z,6.10
2023-02-14T03:07:00.378Z,5.30
2023-02-14T03:12:14.937Z,5.50
2023-02-14T03:14:58.293Z,6.00
2023-02-14T03:18:13.788Z,5.90
2023-02-14T03:25:48.929Z,6.10
2023-02-14T03:28:38.667Z,6.10
2023-02-14T03:31:32.449Z,6.00
2023-02-14T03:36:43.738Z,6.00
2023-02-14T03:41:53.061Z,6.00
2023-02-14T03:44:25.850Z,6.00
2023-02-14T03:47:02.697Z,6.00
2023-02-14T03:49:36.918Z,6.00
2023-02-14T03:52:06.956Z,6.00
2023-02-14T03:54:36.892Z,5.90
2023-02-14T03:57:30.039Z,5.90
2023-02-14T04:02:37.279Z,6.00
2023-02-14T04:05:14.655Z,5.90
2023-02-14T04:07:57.702Z,5.90
2023-02-14T04:10:27.483Z,5.90
2023-02-14T04:30:32.217Z,5.60
2023-02-14T05:00:13.984Z,6.10
2023-02-14T05:12:36.326Z,5.50
2023-02-14T06:29:19.565Z,5.60
2023-02-14T07:13:51.904Z,5.60
2023-02-14T07:28:50.251Z,5.60
2023-02-14T07:36:18.777Z,5.90
2023-02-14T08:03:31.695Z,6.40
2023-02-14T08:08:31.997Z,6.50
2023-02-14T08:11:00.980Z,6.50
2023-02-14T08:16:09.620Z,6.60
2023-02-14T08:18:43.248Z,6.30
2023-02-14T08:21:12.541Z,6.70
2023-02-14T08:31:06.779Z,7.30
2023-02-14T08:36:03.582Z,6.70
2023-02-14T08:38:31.860Z,6.90
2023-02-14T08:41:06.696Z,7.00
2023-02-14T08:46:05.253Z,6.90
2023-02-14T08:48:33.313Z,7.10
2023-02-14T08:53:33.964Z,7.80
2023-02-14T08:56:15.666Z,7.30
2023-02-14T09:01:18.164Z,7.40
2023-02-14T09:06:18.111Z,7.50
2023-02-14T09:08:47.582Z,7.60
2023-02-14T09:11:22.125Z,7.60
2023-02-14T09:13:57.654Z,7.70
2023-02-14T09:16:26.749Z,7.70
2023-02-14T09:21:30.214Z,7.80
2023-02-14T09:28:58.171Z,8.00
2023-02-14T09:31:26.960Z,8.10
2023-02-14T09:41:30.814Z,8.60
2023-02-14T09:44:27.687Z,8.30
2023-02-14T09:47:02.343Z,8.30
2023-02-14T09:49:36.110Z,8.40
2023-02-14T09:52:08.153Z,8.40
2023-02-14T09:54:37.309Z,8.50
2023-02-14T09:57:20.047Z,8.60
2023-02-14T10:00:05.295Z,9.00
2023-02-14T10:02:51.909Z,8.90
2023-02-14T10:05:26.599Z,8.80
2023-02-14T10:07:57.552Z,8.70
2023-02-14T10:10:46.072Z,8.70
2023-02-14T10:13:39.121Z,8.50
2023-02-14T10:16:27.204Z,8.70
2023-02-14T10:19:04.519Z,8.70
2023-02-14T10:21:43.128Z,8.70
2023-02-14T10:24:22.790Z,8.40
2023-02-14T10:26:54.730Z,9.00
2023-02-14T10:29:22.900Z,8.70
2023-02-14T10:32:05.967Z,8.80
2023-02-14T10:34:39.807Z,8.80
2023-02-14T10:37:29.018Z,9.00
2023-02-14T10:40:26.793Z,8.60
2023-02-14T10:43:48.520Z,8.70
2023-02-14T10:46:35.512Z,8.40
2023-02-14T10:49:34.592Z,8.00
2023-02-14T10:52:42.175Z,8.20
2023-02-14T10:55:32.809Z,8.10
2023-02-14T10:58:05.259Z,8.30
2023-02-14T11:01:15.051Z,8.70
2023-02-14T11:04:04.053Z,8.20
2023-02-14T11:06:32.751Z,8.50
2023-02-14T11:09:01.078Z,8.40
2023-02-14T11:11:44.107Z,8.40
2023-02-14T11:14:32.244Z,8.00
2023-02-14T11:17:02.322Z,8.80
2023-02-14T11:19:37.495Z,8.40
2023-02-14T11:24:41.669Z,8.40
2023-02-14T11:27:21.103Z,8.40
2023-02-14T11:29:53.086Z,8.30
2023-02-14T11:32:26.519Z,8.00
2023-02-14T11:35:09.200Z,8.30
2023-02-14T11:37:48.252Z,8.50
2023-02-14T11:40:38.815Z,8.60
2023-02-14T11:43:14.611Z,8.10
2023-02-14T11:45:45.904Z,8.50
2023-02-14T11:48:36.624Z,9.00
2023-02-14T11:51:16.404Z,8.30
2023-02-14T11:53:55.946Z,8.60
2023-02-14T11:56:25.632Z,8.20
2023-02-14T12:01:42.610Z,9.20
2023-02-14T12:04:38.244Z,8.40
2023-02-14T12:07:18.148Z,8.80
2023-02-14T12:09:49.337Z,8.30
2023-02-14T12:12:26.431Z,8.80
2023-02-14T12:15:14.529Z,9.10
2023-02-14T12:17:46.783Z,8.80
2023-02-14T12:20:32.543Z,8.50
2023-02-14T12:23:16.887Z,8.80
2023-02-14T12:25:57.924Z,8.50
2023-02-14T12:28:45.417Z,8.90
2023-02-14T12:31:15.018Z,9.10
2023-02-14T12:36:26.840Z,8.90
2023-02-14T12:39:41.443Z,8.70
2023-02-14T12:42:14.852Z,8.90
2023-02-14T12:45:06.088Z,8.80
2023-02-14T12:48:06.960Z,8.90
2023-02-14T12:51:01.405Z,8.60
2023-02-14T12:53:59.590Z,9.00
2023-02-14T12:56:43.134Z,9.10
2023-02-14T13:05:03.061Z,8.70
2023-02-14T13:08:08.159Z,9.20
2023-02-14T13:11:09.007Z,9.00
2023-02-14T13:14:10.472Z,9.00
2023-02-14T13:17:10.320Z,8.80
2023-02-14T13:20:49.836Z,9.00
2023-02-14T13:23:21.417Z,9.30
2023-02-14T13:25:59.380Z,9.50
2023-02-14T13:28:30.436Z,9.30
2023-02-14T13:31:01.807Z,9.30
2023-02-14T13:33:43.479Z,9.40
2023-02-14T13:36:14.699Z,9.40
2023-02-14T13:39:02.576Z,9.40
2023-02-14T13:44:02.612Z,9.00
2023-02-14T13:46:33.792Z,9.40
2023-02-14T13:49:06.463Z,9.40
2023-02-14T13:51:49.760Z,9.50
2023-02-14T13:54:39.157Z,9.60
2023-02-14T13:57:37.813Z,9.40
2023-02-14T14:00:20.944Z,9.50
2023-02-14T14:02:58.050Z,9.40
2023-02-14T14:05:32.575Z,9.50
2023-02-14T14:08:21.506Z,9.50
2023-02-14T14:11:02.378Z,9.50
2023-02-14T14:13:42.574Z,9.40
2023-02-14T14:16:26.649Z,10.10
2023-02-14T14:19:22.960Z,9.60
2023-02-14T14:22:15.356Z,9.50
2023-02-14T14:24:58.131Z,9.40
2023-02-14T14:28:01.695Z,9.50
2023-02-14T14:30:33.525Z,9.70
2023-02-14T14:33:37.698Z,10.10
2023-02-14T14:36:11.428Z,9.90
2023-02-14T14:38:52.371Z,9.40
2023-02-14T14:48:52.298Z,9.50
2023-02-14T14:51:33.715Z,8.80
2023-02-14T14:54:16.456Z,9.80
2023-02-14T14:56:59.266Z,9.30
2023-02-14T15:01:58.409Z,9.10
2023-02-14T15:04:29.682Z,9.30
2023-02-14T15:07:18.942Z,9.80
2023-02-14T15:09:47.780Z,9.20
2023-02-14T15:12:39.568Z,9.20
2023-02-14T15:15:10.128Z,9.20
2023-02-14T15:17:39.085Z,8.70
2023-02-14T15:20:18.406Z,9.00
2023-02-14T15:22:50.361Z,8.80
2023-02-14T15:25:33.159Z,9.70
2023-02-14T15:30:37.256Z,9.10
2023-02-14T15:33:07.901Z,9.10
2023-02-14T15:35:42.394Z,9.10
2023-02-14T15:38:13.162Z,9.10
2023-02-14T15:43:19.201Z,9.10
2023-02-14T15:45:51.447Z,9.30
2023-02-14T15:48:34.940Z,9.60
2023-02-14T15:51:06.370Z,8.60
2023-02-14T15:53:55.972Z,8.80
2023-02-14T15:56:38.789Z,8.90
2023-02-14T15:59:24.106Z,9.10
2023-02-14T16:02:06.557Z,8.70
2023-02-14T16:04:36.704Z,8.80
2023-02-14T16:07:28.119Z,8.60
2023-02-14T16:10:59.535Z,9.20
2023-02-14T16:13:48.098Z,9.20
2023-02-14T16:16:17.593Z,7.90
2023-02-14T16:18:56.641Z,8.40
2023-02-14T16:21:30.460Z,8.30
2023-02-14T16:24:07.756Z,8.30
2023-02-14T16:26:39.775Z,8.20
2023-02-14T16:29:14.842Z,8.00
2023-02-14T16:34:42.052Z,8.10
2023-02-14T16:37:23.424Z,8.00
2023-02-14T16:39:54.490Z,7.80
2023-02-14T16:44:52.645Z,7.70
2023-02-14T16:47:22.802Z,7.70
2023-02-14T16:52:24.965Z,8.10
2023-02-14T16:54:54.419Z,7.70
2023-02-14T16:57:39.662Z,7.60
2023-02-14T17:00:09.555Z,7.50
2023-02-14T17:05:07.227Z,7.80
2023-02-14T17:10:11.851Z,7.50
2023-02-14T17:12:43.390Z,7.40
2023-02-14T17:15:18.775Z,7.50
2023-02-14T17:17:48.895Z,7.20
2023-02-14T17:20:19.968Z,7.20
2023-02-14T17:30:15.863Z,7.10
2023-02-14T17:32:44.941Z,7.10
2023-02-14T17:37:43.095Z,7.40
2023-02-14T17:40:12.706Z,6.90
2023-02-14T17:47:43.389Z,6.70
2023-02-14T17:50:13.118Z,7.30
2023-02-14T17:52:41.420Z,6.50
2023-02-14T17:55:10.413Z,6.70
2023-02-14T18:00:11.855Z,6.70
2023-02-14T18:02:40.283Z,7.10
2023-02-14T18:10:07.465Z,6.40
2023-02-14T18:25:00.621Z,6.60
2023-02-14T18:27:28.748Z,6.40
2023-02-14T18:29:56.984Z,6.50
2023-02-14T18:34:55.721Z,6.20
2023-02-14T18:44:52.698Z,6.10
2023-02-14T19:12:09.144Z,7.40
2023-02-14T19:34:31.226Z,5.60
2023-02-14T19:37:02.421Z,5.60
2023-02-14T19:39:32.187Z,5.50
2023-02-14T19:57:15.084Z,5.20
2023-02-14T20:02:17.375Z,5.20
2023-02-14T20:32:16.900Z,5.10
2023-02-14T20:54:40.380Z,4.80
2023-02-14T21:12:10.152Z,4.70
2023-02-14T22:17:09.089Z,4.10
2023-02-14T22:54:17.715Z,4.00
2023-02-14T22:56:49.147Z,3.90
2023-02-14T22:59:24.092Z,3.90
2023-02-14T23:01:54.189Z,3.90
2023-02-14T23:04:25.036Z,3.90
2023-02-14T23:06:54.366Z,3.90
2023-02-14T23:09:24.801Z,3.90
2023-02-14T23:22:42.226Z,4.00
2023-02-14T23:25:13.077Z,4.00
2023-02-14T23:27:45.032Z,4.00
2023-02-14T23:30:18.264Z,4.00
